RYR23WP LFML-LEMH
Flight info
| Callsign | RYR23WP |
|---|---|
| Flight time | 0h 40m |
| Altitude | 29000 |
| Route | VATIR N852 VERSO L16 SARGO |
| Aircraft | B38M/M-SDE1FGHILORVWXY/HB1 |
Departure
| Time | 2026-04-10 21:05 |
|---|---|
| Airport | Marseille Provence Airport (LFML) |
Arrival
| Time | 2026-04-10 21:45 |
|---|---|
| Airport | Menorca Airport (LEMH) |
| Time | Latitude | Longitude | Altitude | Speed | Heading |
|---|---|---|---|---|---|
| 2026-04-10 20:45 | 43.44125 | 5.21696 | 34 ft | 0 kts | 89° |
| 2026-04-10 20:59 | 43.44125 | 5.21701 | 34 ft | 3 kts | 97° |
| 2026-04-10 21:00 | 43.44076 | 5.21732 | 35 ft | 14 kts | 188° |
| 2026-04-10 21:00 | 43.43983 | 5.21641 | 36 ft | 19 kts | 224° |
| 2026-04-10 21:00 | 43.43927 | 5.21485 | 35 ft | 21 kts | 296° |
| 2026-04-10 21:00 | 43.44035 | 5.21323 | 31 ft | 25 kts | 314° |
| 2026-04-10 21:01 | 43.44119 | 5.21203 | 27 ft | 28 kts | 314° |
| 2026-04-10 21:01 | 43.44255 | 5.21005 | 22 ft | 28 kts | 308° |
| 2026-04-10 21:01 | 43.44364 | 5.20783 | 20 ft | 26 kts | 313° |
| 2026-04-10 21:01 | 43.44480 | 5.20618 | 20 ft | 22 kts | 313° |
| 2026-04-10 21:02 | 43.44592 | 5.20459 | 20 ft | 24 kts | 314° |
| 2026-04-10 21:02 | 43.44713 | 5.20288 | 20 ft | 24 kts | 314° |
| 2026-04-10 21:02 | 43.44834 | 5.20116 | 21 ft | 26 kts | 313° |
| 2026-04-10 21:02 | 43.44948 | 5.19948 | 20 ft | 11 kts | 313° |
| 2026-04-10 21:03 | 43.44983 | 5.19845 | 20 ft | 9 kts | 263° |
| 2026-04-10 21:03 | 43.44934 | 5.19786 | 20 ft | 11 kts | 210° |
| 2026-04-10 21:03 | 43.44863 | 5.19802 | 20 ft | 12 kts | 137° |
| 2026-04-10 21:03 | 43.44836 | 5.19843 | 20 ft | 0 kts | 133° |
| 2026-04-10 21:04 | 43.44822 | 5.19862 | 19 ft | 8 kts | 135° |
| 2026-04-10 21:04 | 43.44631 | 5.20134 | 20 ft | 74 kts | 134° |
| 2026-04-10 21:04 | 43.44121 | 5.20862 | 22 ft | 136 kts | 134° |
| 2026-04-10 21:05 | 43.43363 | 5.21938 | 234 ft | 170 kts | 135° |
| 2026-04-10 21:05 | 43.42505 | 5.23109 | 783 ft | 182 kts | 137° |
| 2026-04-10 21:05 | 43.41444 | 5.24221 | 1335 ft | 200 kts | 150° |
| 2026-04-10 21:05 | 43.40236 | 5.25225 | 2104 ft | 208 kts | 153° |
| 2026-04-10 21:06 | 43.38915 | 5.26302 | 2549 ft | 231 kts | 152° |
| 2026-04-10 21:06 | 43.37565 | 5.27407 | 3602 ft | 224 kts | 151° |
| 2026-04-10 21:06 | 43.36173 | 5.28445 | 4367 ft | 234 kts | 163° |
| 2026-04-10 21:06 | 43.34520 | 5.28601 | 4906 ft | 249 kts | 195° |
| 2026-04-10 21:07 | 43.32970 | 5.27472 | 5437 ft | 262 kts | 226° |
| 2026-04-10 21:07 | 43.31854 | 5.25436 | 6119 ft | 269 kts | 238° |
| 2026-04-10 21:07 | 43.30798 | 5.23306 | 7010 ft | 272 kts | 238° |
| 2026-04-10 21:07 | 43.29718 | 5.21135 | 7809 ft | 277 kts | 238° |
| 2026-04-10 21:08 | 43.28585 | 5.18982 | 8692 ft | 281 kts | 230° |
| 2026-04-10 21:08 | 43.27040 | 5.17315 | 9570 ft | 287 kts | 214° |
| 2026-04-10 21:08 | 43.25359 | 5.15804 | 10326 ft | 293 kts | 218° |
| 2026-04-10 21:08 | 43.23631 | 5.14166 | 10729 ft | 312 kts | 218° |
| 2026-04-10 21:09 | 43.21790 | 5.12422 | 11045 ft | 332 kts | 218° |
| 2026-04-10 21:09 | 43.19833 | 5.10570 | 11409 ft | 349 kts | 217° |
| 2026-04-10 21:09 | 43.17798 | 5.08647 | 11916 ft | 360 kts | 217° |
| 2026-04-10 21:09 | 43.15731 | 5.06699 | 12743 ft | 361 kts | 217° |
| 2026-04-10 21:10 | 43.13646 | 5.04735 | 13477 ft | 366 kts | 217° |
| 2026-04-10 21:10 | 43.11564 | 5.02778 | 14204 ft | 369 kts | 217° |
| 2026-04-10 21:10 | 43.09434 | 5.00776 | 14904 ft | 374 kts | 217° |
| 2026-04-10 21:10 | 43.07278 | 4.98751 | 15638 ft | 378 kts | 217° |
| 2026-04-10 21:11 | 43.05101 | 4.96709 | 16349 ft | 382 kts | 217° |
| 2026-04-10 21:11 | 43.02903 | 4.94648 | 17055 ft | 385 kts | 217° |
| 2026-04-10 21:11 | 43.00685 | 4.92572 | 17810 ft | 387 kts | 216° |
| 2026-04-10 21:11 | 42.98452 | 4.90483 | 18451 ft | 392 kts | 216° |
| 2026-04-10 21:12 | 42.96190 | 4.88368 | 19065 ft | 394 kts | 216° |
| 2026-04-10 21:12 | 42.93922 | 4.86250 | 19705 ft | 396 kts | 216° |
| 2026-04-10 21:12 | 42.91634 | 4.84115 | 20302 ft | 400 kts | 215° |
| 2026-04-10 21:12 | 42.89339 | 4.81976 | 20866 ft | 403 kts | 215° |
| 2026-04-10 21:13 | 42.87014 | 4.79814 | 21215 ft | 407 kts | 216° |
| 2026-04-10 21:13 | 42.84657 | 4.77618 | 21702 ft | 412 kts | 216° |
| 2026-04-10 21:13 | 42.82315 | 4.75439 | 22271 ft | 415 kts | 216° |
| 2026-04-10 21:13 | 42.79919 | 4.73214 | 22819 ft | 418 kts | 215° |
| 2026-04-10 21:14 | 42.77506 | 4.70977 | 23369 ft | 421 kts | 216° |
| 2026-04-10 21:14 | 42.75073 | 4.68723 | 23828 ft | 425 kts | 216° |
| 2026-04-10 21:14 | 42.72616 | 4.66447 | 24295 ft | 428 kts | 216° |
| 2026-04-10 21:15 | 42.67365 | 4.62712 | 25166 ft | 437 kts | 195° |
| 2026-04-10 21:15 | 42.64335 | 4.62225 | 25600 ft | 442 kts | 184° |
| 2026-04-10 21:15 | 42.61223 | 4.61887 | 25986 ft | 445 kts | 187° |
| 2026-04-10 21:15 | 42.58170 | 4.61473 | 26394 ft | 448 kts | 187° |
| 2026-04-10 21:16 | 42.55064 | 4.61031 | 26808 ft | 451 kts | 188° |
| 2026-04-10 21:16 | 42.51934 | 4.60575 | 27204 ft | 454 kts | 188° |
| 2026-04-10 21:16 | 42.48791 | 4.60114 | 27626 ft | 456 kts | 188° |
| 2026-04-10 21:16 | 42.45630 | 4.59650 | 28015 ft | 459 kts | 188° |
| 2026-04-10 21:17 | 42.42444 | 4.59182 | 28402 ft | 462 kts | 188° |
| 2026-04-10 21:17 | 42.39246 | 4.58713 | 28779 ft | 464 kts | 188° |
| 2026-04-10 21:17 | 42.36016 | 4.58240 | 29017 ft | 469 kts | 188° |
| 2026-04-10 21:17 | 42.32758 | 4.57761 | 29021 ft | 473 kts | 188° |
| 2026-04-10 21:18 | 42.26221 | 4.56807 | 29021 ft | 472 kts | 187° |
| 2026-04-10 21:18 | 42.19695 | 4.55856 | 29020 ft | 472 kts | 187° |
| 2026-04-10 21:19 | 42.13168 | 4.54908 | 29021 ft | 472 kts | 187° |
| 2026-04-10 21:19 | 42.06636 | 4.53960 | 29025 ft | 473 kts | 187° |
| 2026-04-10 21:20 | 42.00091 | 4.53013 | 29029 ft | 473 kts | 187° |
| 2026-04-10 21:20 | 41.93548 | 4.52068 | 29029 ft | 473 kts | 187° |
| 2026-04-10 21:21 | 41.87006 | 4.51125 | 29025 ft | 473 kts | 187° |
| 2026-04-10 21:21 | 41.80463 | 4.50184 | 29033 ft | 473 kts | 187° |
| 2026-04-10 21:22 | 41.73917 | 4.49244 | 29034 ft | 473 kts | 187° |
| 2026-04-10 21:22 | 41.67417 | 4.48313 | 29028 ft | 473 kts | 187° |
| 2026-04-10 21:23 | 41.60877 | 4.47378 | 29034 ft | 473 kts | 187° |
| 2026-04-10 21:23 | 41.54336 | 4.46445 | 29037 ft | 473 kts | 187° |
| 2026-04-10 21:24 | 41.47796 | 4.45514 | 28851 ft | 469 kts | 187° |
| 2026-04-10 21:24 | 41.44515 | 4.45043 | 27543 ft | 476 kts | 187° |
| 2026-04-10 21:24 | 41.41247 | 4.44579 | 26648 ft | 466 kts | 187° |
| 2026-04-10 21:25 | 41.38065 | 4.44130 | 25770 ft | 454 kts | 187° |
| 2026-04-10 21:25 | 41.34967 | 4.43693 | 24940 ft | 442 kts | 187° |
| 2026-04-10 21:25 | 41.31941 | 4.43267 | 24154 ft | 432 kts | 187° |
| 2026-04-10 21:25 | 41.28987 | 4.42851 | 23357 ft | 422 kts | 187° |
| 2026-04-10 21:26 | 41.26091 | 4.42442 | 22489 ft | 413 kts | 188° |
| 2026-04-10 21:26 | 41.23262 | 4.42045 | 21667 ft | 405 kts | 188° |
| 2026-04-10 21:26 | 41.20481 | 4.41653 | 20868 ft | 398 kts | 188° |
| 2026-04-10 21:26 | 41.17757 | 4.41270 | 20137 ft | 391 kts | 188° |
| 2026-04-10 21:27 | 41.15071 | 4.40892 | 19424 ft | 384 kts | 188° |
| 2026-04-10 21:27 | 41.12446 | 4.40524 | 18895 ft | 373 kts | 188° |
| 2026-04-10 21:27 | 41.09907 | 4.40169 | 18479 ft | 361 kts | 188° |
| 2026-04-10 21:27 | 41.07484 | 4.39830 | 18066 ft | 348 kts | 188° |
| 2026-04-10 21:28 | 41.05119 | 4.39500 | 17685 ft | 336 kts | 188° |
| 2026-04-10 21:28 | 41.02840 | 4.39181 | 17338 ft | 323 kts | 188° |
| 2026-04-10 21:28 | 41.00637 | 4.38873 | 17013 ft | 318 kts | 188° |
| 2026-04-10 21:28 | 40.98398 | 4.38559 | 16645 ft | 327 kts | 188° |
| 2026-04-10 21:29 | 40.96122 | 4.38239 | 16307 ft | 331 kts | 188° |
| 2026-04-10 21:29 | 40.93829 | 4.37917 | 15972 ft | 332 kts | 188° |
| 2026-04-10 21:29 | 40.91538 | 4.37596 | 15636 ft | 331 kts | 189° |
| 2026-04-10 21:29 | 40.89259 | 4.37277 | 15298 ft | 328 kts | 189° |
| 2026-04-10 21:30 | 40.86997 | 4.36961 | 14959 ft | 325 kts | 189° |
| 2026-04-10 21:30 | 40.84756 | 4.36648 | 14627 ft | 323 kts | 189° |
| 2026-04-10 21:30 | 40.82527 | 4.36337 | 14298 ft | 321 kts | 189° |
| 2026-04-10 21:30 | 40.80311 | 4.36028 | 13961 ft | 319 kts | 189° |
| 2026-04-10 21:31 | 40.78115 | 4.35722 | 13605 ft | 317 kts | 189° |
| 2026-04-10 21:31 | 40.75928 | 4.35418 | 13246 ft | 315 kts | 189° |
| 2026-04-10 21:31 | 40.73757 | 4.35115 | 12914 ft | 312 kts | 189° |
| 2026-04-10 21:31 | 40.71606 | 4.34816 | 12579 ft | 309 kts | 189° |
| 2026-04-10 21:32 | 40.69478 | 4.34520 | 12270 ft | 307 kts | 188° |
| 2026-04-10 21:32 | 40.67362 | 4.34226 | 11945 ft | 304 kts | 188° |
| 2026-04-10 21:32 | 40.65264 | 4.33935 | 11628 ft | 302 kts | 188° |
| 2026-04-10 21:32 | 40.63176 | 4.33645 | 11314 ft | 302 kts | 188° |
| 2026-04-10 21:33 | 40.61066 | 4.33352 | 10992 ft | 308 kts | 188° |
| 2026-04-10 21:33 | 40.58923 | 4.33055 | 10663 ft | 310 kts | 188° |
| 2026-04-10 21:33 | 40.56774 | 4.32757 | 10352 ft | 310 kts | 188° |
| 2026-04-10 21:33 | 40.54651 | 4.32463 | 10170 ft | 303 kts | 188° |
| 2026-04-10 21:34 | 40.52586 | 4.32177 | 9991 ft | 296 kts | 188° |
| 2026-04-10 21:34 | 40.50541 | 4.31895 | 9660 ft | 294 kts | 188° |
| 2026-04-10 21:34 | 40.48508 | 4.31614 | 9323 ft | 293 kts | 188° |
| 2026-04-10 21:34 | 40.46494 | 4.31336 | 9013 ft | 290 kts | 188° |
| 2026-04-10 21:35 | 40.44491 | 4.31059 | 8707 ft | 288 kts | 188° |
| 2026-04-10 21:35 | 40.42506 | 4.30785 | 8405 ft | 286 kts | 188° |
| 2026-04-10 21:35 | 40.40559 | 4.30516 | 8110 ft | 284 kts | 188° |
| 2026-04-10 21:35 | 40.38602 | 4.30247 | 7804 ft | 282 kts | 188° |
| 2026-04-10 21:36 | 40.36663 | 4.29980 | 7515 ft | 280 kts | 188° |
| 2026-04-10 21:36 | 40.34709 | 4.29711 | 7216 ft | 278 kts | 188° |
| 2026-04-10 21:36 | 40.32819 | 4.29451 | 6927 ft | 276 kts | 188° |
| 2026-04-10 21:36 | 40.30887 | 4.29185 | 6632 ft | 274 kts | 188° |
| 2026-04-10 21:37 | 40.29020 | 4.28928 | 6342 ft | 273 kts | 188° |
| 2026-04-10 21:37 | 40.27135 | 4.28669 | 6032 ft | 272 kts | 188° |
| 2026-04-10 21:37 | 40.25258 | 4.28410 | 5710 ft | 271 kts | 188° |
| 2026-04-10 21:37 | 40.23385 | 4.28154 | 5405 ft | 270 kts | 188° |
| 2026-04-10 21:38 | 40.21521 | 4.27898 | 5109 ft | 269 kts | 188° |
| 2026-04-10 21:38 | 40.19672 | 4.27644 | 4881 ft | 265 kts | 188° |
| 2026-04-10 21:38 | 40.17865 | 4.27398 | 4739 ft | 257 kts | 188° |
| 2026-04-10 21:38 | 40.16115 | 4.27158 | 4604 ft | 249 kts | 188° |
| 2026-04-10 21:39 | 40.14424 | 4.26927 | 4472 ft | 240 kts | 188° |
| 2026-04-10 21:39 | 40.12792 | 4.26705 | 4347 ft | 232 kts | 188° |
| 2026-04-10 21:39 | 40.11213 | 4.26488 | 4211 ft | 224 kts | 188° |
| 2026-04-10 21:39 | 40.09689 | 4.26279 | 4083 ft | 216 kts | 188° |
| 2026-04-10 21:40 | 40.08193 | 4.26075 | 3984 ft | 214 kts | 188° |
| 2026-04-10 21:40 | 40.06770 | 4.25882 | 3955 ft | 198 kts | 188° |
| 2026-04-10 21:40 | 40.05425 | 4.25717 | 3752 ft | 191 kts | 188° |
| 2026-04-10 21:40 | 40.04126 | 4.25516 | 3533 ft | 185 kts | 190° |
| 2026-04-10 21:41 | 40.02866 | 4.25282 | 3316 ft | 181 kts | 191° |
| 2026-04-10 21:41 | 40.01640 | 4.25036 | 3095 ft | 176 kts | 191° |
| 2026-04-10 21:41 | 40.00442 | 4.24791 | 2874 ft | 173 kts | 191° |
| 2026-04-10 21:41 | 39.99271 | 4.24552 | 2698 ft | 166 kts | 191° |
| 2026-04-10 21:42 | 39.98149 | 4.24320 | 2474 ft | 161 kts | 190° |
| 2026-04-10 21:42 | 39.97050 | 4.24092 | 2269 ft | 160 kts | 190° |
| 2026-04-10 21:42 | 39.95981 | 4.23872 | 2072 ft | 153 kts | 190° |
| 2026-04-10 21:42 | 39.94949 | 4.23658 | 1855 ft | 148 kts | 189° |
| 2026-04-10 21:43 | 39.93931 | 4.23448 | 1658 ft | 148 kts | 189° |
| 2026-04-10 21:43 | 39.92916 | 4.23238 | 1459 ft | 147 kts | 189° |
| 2026-04-10 21:43 | 39.91906 | 4.23029 | 1266 ft | 147 kts | 189° |
| 2026-04-10 21:43 | 39.90899 | 4.22822 | 1097 ft | 146 kts | 188° |
| 2026-04-10 21:44 | 39.89894 | 4.22611 | 893 ft | 146 kts | 189° |
| 2026-04-10 21:44 | 39.88886 | 4.22397 | 682 ft | 149 kts | 189° |
| 2026-04-10 21:44 | 39.87833 | 4.22180 | 435 ft | 154 kts | 188° |
| 2026-04-10 21:44 | 39.86788 | 4.21970 | 307 ft | 143 kts | 188° |
| 2026-04-10 21:45 | 39.86008 | 4.21814 | 303 ft | 63 kts | 189° |
| 2026-04-10 21:45 | 39.85676 | 4.21754 | 299 ft | 44 kts | 181° |
| 2026-04-10 21:45 | 39.85486 | 4.21805 | 298 ft | 22 kts | 160° |
| 2026-04-10 21:45 | 39.85398 | 4.21885 | 293 ft | 13 kts | 99° |
| 2026-04-10 21:46 | 39.85460 | 4.21943 | 294 ft | 15 kts | 7° |
| 2026-04-10 21:46 | 39.85598 | 4.21969 | 297 ft | 22 kts | 9° |
| 2026-04-10 21:46 | 39.85755 | 4.22000 | 299 ft | 23 kts | 8° |
| 2026-04-10 21:46 | 39.85917 | 4.22034 | 299 ft | 24 kts | 8° |
| 2026-04-10 21:47 | 39.86090 | 4.22069 | 299 ft | 24 kts | 9° |
| 2026-04-10 21:47 | 39.86186 | 4.22109 | 297 ft | 11 kts | 65° |
| 2026-04-10 21:47 | 39.86185 | 4.22222 | 297 ft | 12 kts | 89° |
| 2026-04-10 21:47 | 39.86252 | 4.22274 | 298 ft | 13 kts | 10° |
| 2026-04-10 21:48 | 39.86353 | 4.22294 | 299 ft | 11 kts | 8° |
| 2026-04-10 21:48 | 39.86422 | 4.22308 | 301 ft | 11 kts | 9° |
| 2026-04-10 21:48 | 39.86510 | 4.22327 | 297 ft | 13 kts | 8° |
| 2026-04-10 21:48 | 39.86533 | 4.22351 | 299 ft | 4 kts | 84° |
| 2026-04-10 21:49 | 39.86529 | 4.22410 | 298 ft | 8 kts | 98° |
| 2026-04-10 21:49 | 39.86528 | 4.22419 | 299 ft | 0 kts | 98° |